Home > Products > Valid Products > MTR

000
SAUS43 KAPX 260455
MTRAPN
METAR KAPN 260454Z AUTO 19003KT 10SM FEW040 BKN110 18/15 A2989 RMK
AO2 RAB18E39 SLP118 P0001 T01780150 402610078





000
SAUS43 KAPX 260355
MTRAPN
METAR KAPN 260354Z AUTO 23003KT 10SM SCT110 20/13 A2990 RMK AO2
SLP121 T02000133





000
SAUS43 KAPX 260255
MTRAPN
METAR KAPN 260254Z AUTO 22006KT 10SM SCT110 21/14 A2990 RMK AO2
SLP124 T02060139 50005





000
SAUS43 KAPX 260155
MTRAPN
METAR KAPN 260154Z AUTO 25003KT 10SM OVC065 21/14 A2991 RMK AO2
SLP126 T02110139





000
SAUS43 KAPX 260055
MTRAPN
METAR KAPN 260054Z AUTO 26004KT 10SM FEW048 OVC065 22/14 A2989 RMK
AO2 SLP120 T02220144





000
SAUS43 KAPX 252356
MTRAPN
METAR KAPN 252354Z AUTO 22007KT 10SM FEW049 BKN075 OVC090 23/14
A2989 RMK AO2 SLP120 T02330144 10261 20233 55002





000
SAUS43 KAPX 252255
MTRAPN
METAR KAPN 252254Z AUTO 23005KT 10SM FEW049 SCT065 OVC085 24/14
A2988 RMK AO2 SLP120 T02390144





000
SAUS43 KAPX 252155
MTRAPN
METAR KAPN 252154Z AUTO 24006KT 10SM BKN090 24/14 A2989 RMK AO2
SLP121 T02440144





000
SAUS43 KAPX 252055
MTRAPN
METAR KAPN 252054Z AUTO 24006KT 10SM FEW075 BKN090 26/14 A2989 RMK
AO2 SLP122 T02560139 56013





000
SAUS43 KAPX 251955
MTRAPN
METAR KAPN 251954Z AUTO 24010KT 10SM FEW050 BKN085 25/13 A2991 RMK
AO2 SLP126 T02500133





000
SAUS43 KAPX 251856
MTRAPN
METAR KAPN 251854Z AUTO 22008KT 10SM BKN050 BKN080 24/12 A2992 RMK
AO2 SLP130 T02440122





000
SAUS43 KAPX 251755
MTRAPN
METAR KAPN 251754Z AUTO 20008KT 170V240 10SM SCT055 BKN070 25/12
A2993 RMK AO2 SLP135 T02500117 10256 20128 56020





000
SAUS43 KAPX 251655
MTRAPN
METAR KAPN 251654Z AUTO VRB05KT 10SM FEW075 25/11 A2995 RMK AO2
SLP141 T02500111





000
SAUS43 KAPX 251555
MTRAPN
METAR KAPN 251554Z AUTO 25007KT 10SM CLR 23/11 A2997 RMK AO2 SLP148
T02280111 $





000
SAUS43 KAPX 251455
MTRAPN
METAR KAPN 251454Z AUTO 24007KT 10SM CLR 22/11 A2999 RMK AO2 SLP156
T02170106 58004 $





000
SAUS43 KAPX 251355
MTRAPN
METAR KAPN 251354Z AUTO 24006KT 10SM CLR 19/11 A3003 RMK AO2 SLP167
T01940106 $





000
SAUS43 KAPX 251255
MTRAPN
METAR KAPN 251254Z AUTO 24008KT 10SM CLR 17/11 A3004 RMK AO2 SLP171
T01670106 $





000
SAUS43 KAPX 251155
MTRAPN
METAR KAPN 251154Z AUTO 00000KT 10SM CLR 13/11 A3001 RMK AO2 SLP161
T01280106 10128 20078 58005 $





000
SAUS43 KAPX 251055
MTRAPN
METAR KAPN 251054Z AUTO 00000KT 10SM CLR 08/08 A3001 RMK AO2 SLP165
T00830078 $





000
SAUS43 KAPX 250955
MTRAPN
METAR KAPN 250954Z AUTO 00000KT 10SM CLR 08/08 A3002 RMK AO2 SLP165
T00830078 $





000
SAUS43 KAPX 250855
MTRAPN
METAR KAPN 250854Z AUTO 21003KT 10SM CLR 09/08 A3002 RMK AO2 SLP167
T00890078 55001





000
SAUS43 KAPX 250755
MTRAPN
METAR KAPN 250754Z AUTO 00000KT 10SM CLR 10/09 A3001 RMK AO2 SLP164
T01000089





000
SAUS43 KAPX 250655
MTRAPN
METAR KAPN 250654Z AUTO 27004KT 10SM CLR 12/11 A3002 RMK AO2 SLP166
T01170106





000
SAUS43 KAPX 250555
MTRAPN
METAR KAPN 250554Z AUTO 00000KT 10SM CLR 11/10 A3003 RMK AO2 SLP167
60000 T01110100 10189 20106 57005





000
SAUS43 KAPX 250455
MTRAPN
METAR KAPN 250454Z AUTO 23003KT 10SM SCT080 12/11 A3004 RMK AO2
SLP170 T01220111 402390094





000
SAUS43 KAPX 250355
MTRAPN
METAR KAPN 250354Z AUTO 00000KT 10SM CLR 12/11 A3003 RMK AO2 SLP170
T01170106





000
SAUS43 KAPX 250255
MTRAPN
METAR KAPN 250254Z AUTO 00000KT 10SM CLR 13/11 A3004 RMK AO2 SLP174
60000 T01330111 56005





000
SAUS43 KAPX 250155
MTRAPN
METAR KAPN 250154Z AUTO 00000KT 10SM CLR 16/11 A3005 RMK AO2
RAB24E47 SLP174 P0000 T01610111





000
SAUS43 KAPX 250055
MTRAPN
METAR KAPN 250054Z AUTO 00000KT 10SM CLR 17/11 A3004 RMK AO2 SLP174
T01720111





000
SAUS43 KAPX 242355
MTRAPN
METAR KAPN 242354Z AUTO 10003KT 10SM CLR 19/12 A3006 RMK AO2 SLP179
T01890117 10239 20189 53002





000
SAUS43 KAPX 242255
MTRAPN
METAR KAPN 242254Z AUTO 12005KT 10SM SCT050 20/12 A3004 RMK AO2
SLP174 T02000117





000
SAUS43 KAPX 242155
MTRAPN
METAR KAPN 242154Z AUTO VRB03KT 10SM SCT050 23/10 A3004 RMK AO2
SLP173 T02330100





000
SAUS43 KAPX 242055
MTRAPN
METAR KAPN 242054Z AUTO 00000KT 10SM SCT050 23/09 A3005 RMK AO2
SLP177 T02280094 58019





000
SAUS43 KAPX 241955
MTRAPN
METAR KAPN 241954Z AUTO VRB05KT 10SM CLR 23/09 A3007 RMK AO2 SLP183
T02330094





000
SAUS43 KAPX 241855
MTRAPN
METAR KAPN 241854Z AUTO 36010KT 10SM SCT050 23/09 A3009 RMK AO2
SLP190 T02330094





000
SAUS43 KAPX 241755
MTRAPN
METAR KAPN 241754Z AUTO 36009KT 10SM FEW048 23/10 A3011 RMK AO2
SLP195 T02280100 10228 20122 58010





000
SAUS43 KAPX 241655
MTRAPN
METAR KAPN 241654Z AUTO 36009KT 10SM FEW045 22/09 A3012 RMK AO2
SLP198 T02170094





000
SAUS43 KAPX 241555
MTRAPN
METAR KAPN 241554Z AUTO 33010KT 10SM CLR 21/09 A3014 RMK AO2 SLP204
T02110094





000
SAUS43 KAPX 241455
MTRAPN
METAR KAPN 241454Z AUTO 29005KT 10SM CLR 19/10 A3014 RMK AO2 SLP206
T01940100 58003





000
SAUS43 KAPX 241355
MTRAPN
METAR KAPN 241354Z AUTO 31004KT 10SM CLR 18/11 A3014 RMK AO2 SLP208
T01780111





000
SAUS43 KAPX 241255
MTRAPN
METAR KAPN 241254Z AUTO 31004KT 10SM CLR 15/10 A3015 RMK AO2 SLP211
T01500100





000
SAUS43 KAPX 241155
MTRAPN
METAR KAPN 241154Z AUTO 31003KT 10SM CLR 12/09 A3015 RMK AO2 SLP210
T01220094 10122 20094 51007





000
SAUS43 KAPX 241055
MTRAPN
METAR KAPN 241054Z AUTO 28004KT 10SM CLR 10/09 A3014 RMK AO2 SLP208
T01000089





000
SAUS43 KAPX 240955
MTRAPN
METAR KAPN 240954Z AUTO 00000KT 10SM CLR 09/08 A3013 RMK AO2 SLP204
T00940083





000
SAUS43 KAPX 240855
MTRAPN
METAR KAPN 240854Z AUTO 00000KT 10SM CLR 10/09 A3013 RMK AO2 SLP202
T01000089 56002





000
SAUS43 KAPX 240755
MTRAPN
METAR KAPN 240754Z AUTO 00000KT 10SM CLR 11/09 A3013 RMK AO2 SLP203
T01060089





000
SAUS43 KAPX 240655
MTRAPN
METAR KAPN 240654Z AUTO 00000KT 10SM CLR 12/09 A3013 RMK AO2 SLP203
T01170094





000
SAUS43 KAPX 240556
MTRAPN
METAR KAPN 240554Z AUTO 31004KT 10SM SCT065 12/09 A3013 RMK AO2
SLP205 T01220094 10194 20122 53001





000
SAUS43 KAPX 240456
MTRAPN
METAR KAPN 240454Z AUTO 32005KT 10SM BKN065 13/09 A3013 RMK AO2
SLP202 T01330094 402170133





000
SAUS43 KAPX 240355
MTRAPN
METAR KAPN 240354Z AUTO 31006KT 10SM OVC065 14/09 A3012 RMK AO2
SLP202 T01390094





000
SAUS43 KAPX 240255
MTRAPN
METAR KAPN 240254Z AUTO 32006KT 10SM CLR 14/10 A3013 RMK AO2 SLP204
T01440100 51009





000
SAUS43 KAPX 240155
MTRAPN
METAR KAPN 240154Z AUTO 32009KT 10SM FEW065 16/11 A3013 RMK AO2
SLP204 T01560106





000
SAUS43 KAPX 240055
MTRAPN
METAR KAPN 240054Z AUTO 33010KT 10SM SCT065 18/11 A3011 RMK AO2
SLP198 T01780106





000
SAUS43 KAPX 232355
MTRAPN
METAR KAPN 232354Z AUTO 32010KT 10SM SCT065 19/10 A3010 RMK AO2
SLP194 T01940100 10217 20194 55000





000
SAUS43 KAPX 232255
MTRAPN
METAR KAPN 232254Z AUTO 34013KT 10SM CLR 21/09 A3010 RMK AO2 SLP193
T02110089





000
SAUS43 KAPX 232155
MTRAPN
METAR KAPN 232154Z AUTO 01012KT 10SM CLR 22/09 A3010 RMK AO2 SLP191
T02170094





000
SAUS43 KAPX 232055
MTRAPN
METAR KAPN 232054Z AUTO 34013G22KT 10SM CLR 22/09 A3010 RMK AO2
SLP194 T02170094 58004





000
SAUS43 KAPX 231955
MTRAPN
METAR KAPN 231954Z AUTO 36012KT 10SM CLR 21/09 A3012 RMK AO2 SLP198
T02110094





000
SAUS43 KAPX 231855
MTRAPN
METAR KAPN 231854Z AUTO 34011KT 10SM FEW035 21/11 A3012 RMK AO2
SLP200 T02060106





000
SAUS43 KAPX 231755
MTRAPN
METAR KAPN 231754Z AUTO 34014KT 10SM BKN030 19/12 A3012 RMK AO2
SLP198 T01940117 10200 20156 53008





000
SAUS43 KAPX 231656
MTRAPN
METAR KAPN 231654Z AUTO 34013KT 10SM OVC025 19/12 A3011 RMK AO2
SLP195 T01890117





000
SAUS43 KAPX 231555
MTRAPN
METAR KAPN 231554Z AUTO 34012KT 10SM OVC027 18/12 A3010 RMK AO2
SLP192 T01780122





000
SAUS43 KAPX 231520
MTRAPN
SPECI KAPN 231518Z AUTO 34011KT 10SM SCT021 OVC029 18/13 A3010 RMK
AO2 T01780128





000
SAUS43 KAPX 231455
MTRAPN
METAR KAPN 231454Z AUTO 35011KT 10SM FEW023 OVC032 18/12 A3009 RMK
AO2 SLP189 T01780122 56001





000
SAUS43 KAPX 231438
MTRAPN
SPECI KAPN 231437Z AUTO 34011KT 10SM SCT026 OVC031 18/12 A3009 RMK
AO2 T01780122





000
SAUS43 KAPX 231355
MTRAPN
METAR KAPN 231354Z AUTO 34009KT 10SM FEW020 BKN027 OVC032 17/13
A3009 RMK AO2 SLP189 T01720128





000
SAUS43 KAPX 231255
MTRAPN
METAR KAPN 231254Z AUTO 31006KT 10SM OVC027 16/13 A3010 RMK AO2
SLP189 T01560133





000
SAUS43 KAPX 231155
MTRAPN
METAR KAPN 231154Z AUTO 32008KT 10SM BKN027 16/13 A3009 RMK AO2
SLP187 70040 T01560133 10161 20139 51039





000
SAUS43 KAPX 231103
MTRAPN
SPECI KAPN 231102Z AUTO 32006KT 10SM SCT027 14/13 A3006 RMK AO2
T01440128





000
SAUS43 KAPX 231055
MTRAPN
METAR KAPN 231054Z AUTO 31005KT 10SM BKN027 14/13 A3006 RMK AO2
SLP177 T01390128





000
SAUS43 KAPX 231028
MTRAPN
SPECI KAPN 231027Z AUTO 32005KT 10SM BKN028 14/13 A3005 RMK AO2
T01440128





000
SAUS43 KAPX 230955
MTRAPN
METAR KAPN 230954Z AUTO 33009KT 10SM CLR 14/13 A3003 RMK AO2 PRESRR
SLP166 T01440128





000
SAUS43 KAPX 230856
MTRAPN
METAR KAPN 230854Z AUTO 33008KT 10SM CLR 15/12 A2997 RMK AO2 SLP147
T01500122 51007





000
SAUS43 KAPX 230755
MTRAPN
METAR KAPN 230754Z AUTO 34010KT 10SM SCT018 OVC036 16/13 A2997 RMK
AO2 SLP146 T01560128





000
SAUS43 KAPX 230655
MTRAPN
METAR KAPN 230654Z AUTO 32011G21KT 10SM OVC015 16/13 A2997 RMK AO2
SLP146 T01610133





000
SAUS43 KAPX 230639
MTRAPN
SPECI KAPN 230638Z AUTO 32012G21KT 10SM OVC015 16/13 A2997 RMK AO2
T01610133





000
SAUS43 KAPX 230555
MTRAPN
METAR KAPN 230554Z AUTO 31012G19KT 10SM OVC013 17/14 A2995 RMK AO2
SLP139 60040 T01720144 10283 20172 51012





    US Dept of Commerce
    National Oceanic and Atmospheric Administration
    National Weather Service
    1325 East West Highway
    Silver Spring, MD 20910
    Page Author: NWS Internet Services Team
Disclaimer
Information Quality
Credits
Glossary
Privacy Policy
Freedom of Information Act (FOIA)
About Us
Career Opportunities